createdAt,value
2016-06-12T00:00:43.795Z,20.34
2016-06-12T00:01:43.439Z,20.42
2016-06-12T00:02:43.629Z,20.42
2016-06-12T00:03:43.273Z,20.37
2016-06-12T00:04:43.682Z,20.4
2016-06-12T00:05:43.263Z,20.34
2016-06-12T00:06:43.267Z,20.29
2016-06-12T00:07:43.145Z,20.32
2016-06-12T00:08:43.204Z,20.34
2016-06-12T00:09:43.262Z,20.34
2016-06-12T00:10:43.506Z,20.35
2016-06-12T00:11:43.266Z,20.3
2016-06-12T00:12:43.229Z,20.42
2016-06-12T00:13:44.035Z,20.37
2016-06-12T00:14:43.442Z,20.4
2016-06-12T00:15:42.632Z,20.35
2016-06-12T00:16:43.991Z,20.41
2016-06-12T00:17:42.883Z,20.38
2016-06-12T00:18:42.879Z,20.37
2016-06-12T00:19:44.277Z,20.37
2016-06-12T00:20:44.176Z,20.25
2016-06-12T00:21:43.028Z,20.37
2016-06-12T00:22:43.442Z,20.32
2016-06-12T00:23:43.776Z,20.46
2016-06-12T00:24:43.687Z,20.25
2016-06-12T00:25:43.739Z,20.38
2016-06-12T00:26:44.119Z,20.38
2016-06-12T00:27:43.296Z,20.27
2016-06-12T00:28:43.784Z,20.34
2016-06-12T00:29:43.398Z,20.23
2016-06-12T00:30:43.323Z,20.27
2016-06-12T00:31:47.764Z,20.26
2016-06-12T00:32:44.189Z,20.35
2016-06-12T00:33:44.131Z,20.32
2016-06-12T00:34:44.399Z,20.29
2016-06-12T00:35:43.433Z,20.25
2016-06-12T00:36:46.562Z,20.22
2016-06-12T00:37:43.706Z,20.35
2016-06-12T00:38:44.193Z,20.29
2016-06-12T00:39:43.822Z,20.22
2016-06-12T00:40:43.465Z,20.2
2016-06-12T00:41:43.610Z,20.18
2016-06-12T00:42:43.455Z,20.23
2016-06-12T00:43:43.553Z,20.22
2016-06-12T00:44:43.681Z,20.2
2016-06-12T00:45:43.387Z,20.19
2016-06-12T00:46:44.109Z,20.2
2016-06-12T00:47:43.300Z,20.22
2016-06-12T00:48:43.928Z,20.16
2016-06-12T00:49:43.635Z,20.16
2016-06-12T00:50:43.793Z,20.29
2016-06-12T00:51:43.719Z,20.15
2016-06-12T00:52:43.830Z,20.19
2016-06-12T00:53:43.240Z,20.23
2016-06-12T00:54:43.462Z,20.19
2016-06-12T00:55:42.917Z,20.11
2016-06-12T00:56:43.765Z,20.19
2016-06-12T00:57:44.315Z,20.15
2016-06-12T00:58:44.193Z,20.11
2016-06-12T00:59:43.368Z,20.1
2016-06-12T01:00:43.480Z,20.12
2016-06-12T01:01:43.639Z,20.1
2016-06-12T01:02:43.830Z,20.08
2016-06-12T01:03:43.756Z,20.02
2016-06-12T01:04:43.883Z,20.04
2016-06-12T01:05:43.620Z,20.08
2016-06-12T01:06:44.092Z,20.02
2016-06-12T01:07:43.799Z,20.04
2016-06-12T01:08:43.598Z,20.08
2016-06-12T01:09:44.024Z,20.07
2016-06-12T01:10:43.699Z,19.97
2016-06-12T01:11:43.904Z,20.05
2016-06-12T01:12:43.705Z,20.08
2016-06-12T01:13:44.301Z,19.95
2016-06-12T01:14:42.929Z,20.04
2016-06-12T01:15:43.715Z,20.02
2016-06-12T01:16:44.014Z,20.01
2016-06-12T01:17:43.846Z,19.95
2016-06-12T01:18:43.723Z,20.02
2016-06-12T01:19:43.601Z,20
2016-06-12T01:20:43.916Z,20
2016-06-12T01:21:43.060Z,19.97
2016-06-12T01:22:43.814Z,19.89
2016-06-12T01:23:43.504Z,19.98
2016-06-12T01:24:43.601Z,19.95
2016-06-12T01:25:43.151Z,19.95
2016-06-12T01:26:43.513Z,19.83
2016-06-12T01:27:44.219Z,19.93
2016-06-12T01:28:44.441Z,19.95
2016-06-12T01:29:43.929Z,19.9
2016-06-12T01:30:43.917Z,19.86
2016-06-12T01:31:43.856Z,19.95
2016-06-12T01:32:44.094Z,19.87
2016-06-12T01:33:43.660Z,19.92
2016-06-12T01:34:44.070Z,19.92
2016-06-12T01:35:45.182Z,19.9
2016-06-12T01:36:43.716Z,19.89
2016-06-12T01:37:43.641Z,19.86
2016-06-12T01:38:44.316Z,19.86
2016-06-12T01:39:44.006Z,19.93
2016-06-12T01:40:44.214Z,19.87
2016-06-12T01:41:44.434Z,19.86
2016-06-12T01:42:43.406Z,19.87
2016-06-12T01:43:43.440Z,19.89
2016-06-12T01:44:44.147Z,19.89
2016-06-12T01:45:44.244Z,19.78
2016-06-12T01:46:43.496Z,19.74
2016-06-12T01:47:44.563Z,19.82
2016-06-12T01:48:42.644Z,19.79
2016-06-12T01:49:43.772Z,19.83
2016-06-12T01:50:43.978Z,19.74
2016-06-12T01:51:44.356Z,19.82
2016-06-12T01:52:44.218Z,19.89
2016-06-12T01:53:43.690Z,19.74
2016-06-12T01:54:42.866Z,19.75
2016-06-12T01:55:43.634Z,19.8
2016-06-12T01:56:43.949Z,19.74
2016-06-12T01:57:43.344Z,19.74
2016-06-12T01:58:44.049Z,19.7
2016-06-12T01:59:43.647Z,19.63
2016-06-12T02:00:43.868Z,19.57
2016-06-12T02:01:44.059Z,19.67
2016-06-12T02:02:44.327Z,19.63
2016-06-12T02:03:44.284Z,19.67
2016-06-12T02:04:44.099Z,19.63
2016-06-12T02:05:44.368Z,19.64
2016-06-12T02:06:44.230Z,19.67
2016-06-12T02:07:44.436Z,19.63
2016-06-12T02:08:44.346Z,19.63
2016-06-12T02:09:44.053Z,19.67
2016-06-12T02:10:43.931Z,19.7
2016-06-12T02:11:43.887Z,19.56
2016-06-12T02:12:43.749Z,19.65
2016-06-12T02:13:43.580Z,19.63
2016-06-12T02:14:44.333Z,19.49
2016-06-12T02:15:43.774Z,19.64
2016-06-12T02:16:44.120Z,19.7
2016-06-12T02:17:43.608Z,19.65
2016-06-12T02:18:43.736Z,19.7
2016-06-12T02:19:43.614Z,19.61
2016-06-12T02:20:44.117Z,19.63
2016-06-12T02:21:44.324Z,19.68
2016-06-12T02:22:44.654Z,19.67
2016-06-12T02:23:44.470Z,19.63
2016-06-12T02:24:44.301Z,19.65
2016-06-12T02:25:43.258Z,19.6
2016-06-12T02:26:43.261Z,19.55
2016-06-12T02:27:44.013Z,19.6
2016-06-12T02:28:44.095Z,19.64
2016-06-12T02:29:44.098Z,19.5
2016-06-12T02:30:43.804Z,19.63
2016-06-12T02:31:43.588Z,19.65
2016-06-12T02:32:43.842Z,19.61
2016-06-12T02:33:43.547Z,19.55
2016-06-12T02:34:44.988Z,19.63
2016-06-12T02:35:43.960Z,19.64
2016-06-12T02:36:43.744Z,19.55
2016-06-12T02:37:44.076Z,19.52
2016-06-12T02:38:44.267Z,19.64
2016-06-12T02:39:44.082Z,19.61
2016-06-12T02:40:44.084Z,19.49
2016-06-12T02:41:43.916Z,19.47
2016-06-12T02:42:44.232Z,19.5
2016-06-12T02:43:44.094Z,19.52
2016-06-12T02:44:43.956Z,19.57
2016-06-12T02:45:44.241Z,19.42
2016-06-12T02:46:43.931Z,19.46
2016-06-12T02:47:44.356Z,19.5
2016-06-12T02:48:44.031Z,19.45
2016-06-12T02:49:43.065Z,19.52
2016-06-12T02:50:44.006Z,19.42
2016-06-12T02:51:43.978Z,19.53
2016-06-12T02:52:43.887Z,19.56
2016-06-12T02:53:44.077Z,19.47
2016-06-12T02:54:44.237Z,19.43
2016-06-12T02:55:44.240Z,19.45
2016-06-12T02:56:44.133Z,19.4
2016-06-12T02:57:44.028Z,19.53
2016-06-12T02:58:43.921Z,19.46
2016-06-12T02:59:43.924Z,19.5
2016-06-12T03:00:44.021Z,19.49
2016-06-12T03:01:44.243Z,19.5
2016-06-12T03:02:44.183Z,19.47
2016-06-12T03:03:44.186Z,19.43
2016-06-12T03:04:44.284Z,19.5
2016-06-12T03:05:43.989Z,19.49
2016-06-12T03:06:43.805Z,19.34
2016-06-12T03:07:43.887Z,19.43
2016-06-12T03:08:44.343Z,19.52
2016-06-12T03:09:43.814Z,19.45
2016-06-12T03:10:44.036Z,19.47
2016-06-12T03:11:43.961Z,19.46
2016-06-12T03:12:43.964Z,19.43
2016-06-12T03:13:44.108Z,19.43
2016-06-12T03:14:43.767Z,19.38
2016-06-12T03:15:44.381Z,19.37
2016-06-12T03:16:44.101Z,19.35
2016-06-12T03:17:43.636Z,19.43
2016-06-12T03:18:43.982Z,19.37
2016-06-12T03:19:44.204Z,19.42
2016-06-12T03:20:43.708Z,19.37
2016-06-12T03:21:44.429Z,19.46
2016-06-12T03:22:43.213Z,19.42
2016-06-12T03:23:44.545Z,19.42
2016-06-12T03:24:44.048Z,19.35
2016-06-12T03:25:44.582Z,19.38
2016-06-12T03:26:44.585Z,19.27
2016-06-12T03:27:44.573Z,19.28
2016-06-12T03:28:44.185Z,19.42
2016-06-12T03:29:43.424Z,19.4
2016-06-12T03:30:44.285Z,19.43
2016-06-12T03:31:43.882Z,19.38
2016-06-12T03:32:44.183Z,19.43
2016-06-12T03:33:43.842Z,19.3
2016-06-12T03:34:43.610Z,19.43
2016-06-12T03:35:44.425Z,19.38
2016-06-12T03:36:44.616Z,19.38
2016-06-12T03:37:44.260Z,19.45
2016-06-12T03:38:44.466Z,19.42
2016-06-12T03:39:44.688Z,19.47
2016-06-12T03:40:44.285Z,19.42
2016-06-12T03:41:44.664Z,19.38
2016-06-12T03:42:44.197Z,19.42
2016-06-12T03:43:44.075Z,19.27
2016-06-12T03:44:43.578Z,19.34
2016-06-12T03:45:44.690Z,19.38
2016-06-12T03:46:43.507Z,19.38
2016-06-12T03:47:44.135Z,19.49
2016-06-12T03:48:44.309Z,19.4
2016-06-12T03:49:44.625Z,19.43
2016-06-12T03:50:43.222Z,19.45
2016-06-12T03:51:44.272Z,19.4
2016-06-12T03:52:43.869Z,19.4
2016-06-12T03:53:44.575Z,19.37
2016-06-12T03:54:44.672Z,19.35
2016-06-12T03:55:44.065Z,19.45
2016-06-12T03:56:43.177Z,19.42
2016-06-12T03:57:43.899Z,19.32
2016-06-12T03:58:43.918Z,19.31
2016-06-12T03:59:44.219Z,19.32
2016-06-12T04:00:44.128Z,19.2
2016-06-12T04:01:44.099Z,19.31
2016-06-12T04:02:44.070Z,19.31
2016-06-12T04:03:44.246Z,19.34
2016-06-12T04:04:44.437Z,19.34
2016-06-12T04:05:44.049Z,19.32
2016-06-12T04:06:43.646Z,19.31
2016-06-12T04:07:44.758Z,19.35
2016-06-12T04:08:44.418Z,19.27
2016-06-12T04:09:43.999Z,19.42
2016-06-12T04:10:44.220Z,19.32
2016-06-12T04:11:44.723Z,19.28
2016-06-12T04:12:44.211Z,19.34
2016-06-12T04:13:44.574Z,19.31
2016-06-12T04:14:44.748Z,19.32
2016-06-12T04:15:43.674Z,19.32
2016-06-12T04:16:44.146Z,19.38
2016-06-12T04:17:44.664Z,19.28
2016-06-12T04:18:44.385Z,19.4
2016-06-12T04:19:44.702Z,19.43
2016-06-12T04:20:44.626Z,19.35
2016-06-12T04:21:45.004Z,19.37
2016-06-12T04:22:44.367Z,19.43
2016-06-12T04:23:44.823Z,19.46
2016-06-12T04:24:44.108Z,19.49
2016-06-12T04:25:44.016Z,19.47
2016-06-12T04:26:44.035Z,19.47
2016-06-12T04:27:44.444Z,19.42
2016-06-12T04:28:44.651Z,19.4
2016-06-12T04:29:44.654Z,19.49
2016-06-12T04:30:43.970Z,19.42
2016-06-12T04:31:44.066Z,19.46
2016-06-12T04:32:44.101Z,19.42
2016-06-12T04:33:44.510Z,19.53
2016-06-12T04:34:44.716Z,19.37
2016-06-12T04:35:44.829Z,19.34
2016-06-12T04:36:44.707Z,19.47
2016-06-12T04:37:44.097Z,19.35
2016-06-12T04:38:44.338Z,19.42
2016-06-12T04:39:44.747Z,19.53
2016-06-12T04:40:44.376Z,19.53
2016-06-12T04:41:44.660Z,19.47
2016-06-12T04:42:44.569Z,19.55
2016-06-12T04:43:44.054Z,19.43
2016-06-12T04:44:44.010Z,19.46
2016-06-12T04:45:44.969Z,19.52
2016-06-12T04:46:44.235Z,19.46
2016-06-12T04:47:44.331Z,19.47
2016-06-12T04:48:44.587Z,19.55
2016-06-12T04:49:44.119Z,19.42
2016-06-12T04:50:44.169Z,19.49
2016-06-12T04:51:43.515Z,19.47
2016-06-12T04:52:44.566Z,19.5
2016-06-12T04:53:43.771Z,19.5
2016-06-12T04:54:44.571Z,19.5
2016-06-12T04:55:44.591Z,19.47
2016-06-12T04:56:44.203Z,19.5
2016-06-12T04:57:43.611Z,19.52
2016-06-12T04:58:44.115Z,19.47
2016-06-12T04:59:44.400Z,19.55
2016-06-12T05:00:44.481Z,19.49
2016-06-12T05:01:44.940Z,19.5
2016-06-12T05:02:44.706Z,19.49
2016-06-12T05:03:44.146Z,19.43
2016-06-12T05:04:44.337Z,19.49
2016-06-12T05:05:44.636Z,19.57
2016-06-12T05:06:44.672Z,19.6
2016-06-12T05:07:44.237Z,19.6
2016-06-12T05:08:44.567Z,19.5
2016-06-12T05:09:44.367Z,19.65
2016-06-12T05:12:40.282Z,19.67
2016-06-12T05:13:08.661Z,19.63
2016-06-12T05:14:09.383Z,19.67
2016-06-12T05:15:09.605Z,19.64
2016-06-12T05:16:09.764Z,19.68
2016-06-12T05:17:08.923Z,19.6
2016-06-12T05:18:09.114Z,19.63
2016-06-12T05:19:09.540Z,19.68
2016-06-12T05:20:09.495Z,19.72
2016-06-12T05:21:09.857Z,19.7
2016-06-12T05:22:09.955Z,19.72
2016-06-12T05:23:09.583Z,19.71
2016-06-12T05:24:09.976Z,19.75
2016-06-12T05:25:09.558Z,19.68
2016-06-12T05:26:09.779Z,19.8
2016-06-12T05:27:09.892Z,19.79
2016-06-12T05:28:09.598Z,19.67
2016-06-12T05:29:09.617Z,19.75
2016-06-12T05:30:09.604Z,19.78
2016-06-12T05:31:09.530Z,19.8
2016-06-12T05:32:09.688Z,19.79
2016-06-12T05:33:09.880Z,19.78
2016-06-12T05:34:09.850Z,19.71
2016-06-12T05:35:09.558Z,19.82
2016-06-12T05:36:10.310Z,19.83
2016-06-12T05:37:09.579Z,19.92
2016-06-12T05:38:09.692Z,19.83
2016-06-12T05:39:09.960Z,19.85
2016-06-12T05:40:09.854Z,19.92
2016-06-12T05:41:09.607Z,19.86
2016-06-12T05:42:10.344Z,19.97
2016-06-12T05:43:09.832Z,19.97
2016-06-12T05:44:09.194Z,19.9
2016-06-12T05:45:09.978Z,19.97
2016-06-12T05:46:09.622Z,19.97
2016-06-12T05:47:09.844Z,19.92
2016-06-12T05:48:10.518Z,20
2016-06-12T05:49:10.287Z,20.02
2016-06-12T05:50:09.712Z,20
2016-06-12T05:51:09.607Z,20.04
2016-06-12T05:52:10.344Z,20
2016-06-12T05:53:09.816Z,20.05
2016-06-12T05:54:09.741Z,19.89
2016-06-12T05:55:09.619Z,20.01
2016-06-12T05:56:09.981Z,20
2016-06-12T05:57:09.546Z,20.07
2016-06-12T05:58:09.941Z,19.95
2016-06-12T05:59:09.865Z,20.02
2016-06-12T06:00:09.680Z,20.07
2016-06-12T06:01:10.075Z,20.08
2016-06-12T06:02:10.280Z,20.18
2016-06-12T06:03:10.206Z,20.11
2016-06-12T06:04:10.364Z,20.12
2016-06-12T06:05:10.025Z,20.08
2016-06-12T06:06:10.245Z,20.12
2016-06-12T06:07:10.140Z,20.05
2016-06-12T06:08:10.018Z,20.07
2016-06-12T06:09:10.240Z,20.12
2016-06-12T06:10:09.977Z,20.11
2016-06-12T06:11:10.261Z,20.16
2016-06-12T06:12:09.671Z,20.16
2016-06-12T06:13:09.877Z,20.18
2016-06-12T06:14:09.989Z,20.15
2016-06-12T06:15:09.821Z,20.18
2016-06-12T06:16:09.792Z,20.23
2016-06-12T06:17:09.201Z,20.2
2016-06-12T06:18:08.768Z,20.23
2016-06-12T06:19:08.989Z,20.18
2016-06-12T06:20:09.946Z,20.27
2016-06-12T06:23:05.642Z,20.22
2016-06-12T06:23:33.345Z,20.22
2016-06-12T06:24:34.036Z,20.3
2016-06-12T06:25:33.773Z,20.26
2016-06-12T06:26:33.715Z,20.25
2016-06-12T06:28:58.849Z,20.3
2016-06-12T06:29:59.352Z,20.35
2016-06-12T06:30:59.292Z,20.41
2016-06-12T06:31:59.138Z,20.41
2016-06-12T06:32:58.939Z,20.37
2016-06-12T06:33:58.973Z,20.35
2016-06-12T06:34:58.006Z,20.41
2016-06-12T06:35:58.229Z,20.49
2016-06-12T06:36:59.810Z,20.35
2016-06-12T06:37:58.891Z,20.44
2016-06-12T06:38:59.472Z,20.49
2016-06-12T06:39:58.945Z,20.42
2016-06-12T06:40:59.557Z,20.44
2016-06-12T06:41:58.497Z,20.56
2016-06-12T06:42:59.157Z,20.54
2016-06-12T06:43:59.253Z,20.58
2016-06-12T06:44:58.757Z,20.46
2016-06-12T06:45:59.182Z,20.56
2016-06-12T06:46:59.294Z,20.54
2016-06-12T06:47:59.453Z,20.56
2016-06-12T06:48:58.409Z,20.67
2016-06-12T06:49:59.428Z,20.64
2016-06-12T06:50:58.822Z,20.53
2016-06-12T06:51:59.106Z,20.66
2016-06-12T06:52:58.578Z,20.6
2016-06-12T06:53:59.284Z,20.68
2016-06-12T06:54:59.146Z,20.66
2016-06-12T06:55:58.931Z,20.76
2016-06-12T06:56:57.903Z,20.66
2016-06-12T06:57:58.875Z,20.61
2016-06-12T06:58:59.096Z,20.72
2016-06-12T06:59:59.319Z,20.78
2016-06-12T07:00:59.197Z,20.66
2016-06-12T07:01:59.106Z,20.67
2016-06-12T07:02:58.718Z,20.78
2016-06-12T07:03:59.237Z,20.79
2016-06-12T07:04:59.068Z,20.83
2016-06-12T07:05:59.133Z,20.82
2016-06-12T07:06:59.872Z,20.86
2016-06-12T07:07:59.265Z,20.91
2016-06-12T07:08:58.081Z,20.85
2016-06-12T07:09:59.145Z,20.85
2016-06-12T07:10:59.681Z,20.85
2016-06-12T07:11:59.184Z,20.88
2016-06-12T07:12:58.702Z,20.9
2016-06-12T07:13:58.986Z,20.94
2016-06-12T07:14:58.599Z,21
2016-06-12T07:15:59.243Z,20.97
2016-06-12T07:16:59.246Z,20.93
2016-06-12T07:17:58.436Z,20.93
2016-06-12T07:18:59.673Z,20.93
2016-06-12T07:19:59.270Z,21
2016-06-12T07:20:57.914Z,21
2016-06-12T07:21:59.011Z,21.01
2016-06-12T07:22:59.311Z,21.09
2016-06-12T07:23:59.080Z,21.06
2016-06-12T07:24:59.207Z,21.04
2016-06-12T07:25:58.899Z,21.12
2016-06-12T07:26:58.994Z,21.12
2016-06-12T07:27:59.388Z,21.03
2016-06-12T07:28:59.720Z,21.13
2016-06-12T07:29:59.754Z,21.13
2016-06-12T07:30:59.148Z,21.23
2016-06-12T07:31:58.932Z,21.19
2016-06-12T07:32:59.248Z,21.28
2016-06-12T07:33:58.751Z,21.08
2016-06-12T07:34:58.785Z,21.18
2016-06-12T07:35:58.804Z,21.21
2016-06-12T07:36:59.494Z,21.09
2016-06-12T07:37:59.639Z,21.23
2016-06-12T07:38:58.173Z,21.18
2016-06-12T07:39:59.192Z,21.22
2016-06-12T07:40:59.210Z,21.15
2016-06-12T07:41:59.119Z,21.12
2016-06-12T07:42:59.435Z,21.18
2016-06-12T07:43:59.157Z,21.34
2016-06-12T07:44:59.097Z,21.27
2016-06-12T07:45:59.163Z,21.23
2016-06-12T07:46:59.275Z,21.23
2016-06-12T07:47:59.653Z,21.28
2016-06-12T07:48:59.531Z,21.31
2016-06-12T07:49:59.706Z,21.31
2016-06-12T07:50:59.318Z,21.31
2016-06-12T07:51:59.603Z,21.36
2016-06-12T07:52:59.435Z,21.36
2016-06-12T07:53:59.750Z,21.38
2016-06-12T07:54:59.128Z,21.41
2016-06-12T07:55:59.412Z,21.33
2016-06-12T07:56:58.884Z,21.45
2016-06-12T07:57:58.997Z,21.41
2016-06-12T07:58:59.390Z,21.4
2016-06-12T07:59:59.503Z,21.41
2016-06-12T08:00:59.302Z,21.51
2016-06-12T08:01:59.541Z,21.41
2016-06-12T08:02:59.512Z,21.48
2016-06-12T08:03:59.391Z,21.49
2016-06-12T08:04:59.549Z,21.55
2016-06-12T08:05:59.724Z,21.48
2016-06-12T08:06:59.415Z,21.59
2016-06-12T08:07:59.433Z,21.51
2016-06-12T08:08:59.515Z,21.52
2016-06-12T08:09:58.268Z,21.51
2016-06-12T08:10:59.552Z,21.52
2016-06-12T08:11:59.165Z,21.59
2016-06-12T08:12:59.480Z,21.62
2016-06-12T08:13:59.671Z,21.58
2016-06-12T08:14:59.392Z,21.61
2016-06-12T08:15:58.833Z,21.59
2016-06-12T08:16:59.726Z,21.67
2016-06-12T08:17:58.901Z,21.62
2016-06-12T08:18:59.562Z,21.55
2016-06-12T08:19:59.157Z,21.53
2016-06-12T08:20:59.224Z,21.7
2016-06-12T08:22:00.164Z,21.68
2016-06-12T08:22:58.855Z,21.66
2016-06-12T08:23:59.280Z,21.74
2016-06-12T08:24:59.611Z,21.73
2016-06-12T08:25:59.834Z,21.67
2016-06-12T08:26:59.336Z,21.67
2016-06-12T08:27:59.432Z,21.74
2016-06-12T08:28:58.296Z,21.68
2016-06-12T08:29:59.438Z,21.64
2016-06-12T08:30:59.005Z,21.71
2016-06-12T08:31:59.241Z,21.77
2016-06-12T08:32:59.244Z,21.71
2016-06-12T08:33:58.092Z,21.82
2016-06-12T08:34:59.531Z,21.82
2016-06-12T08:35:59.785Z,21.9
2016-06-12T08:36:59.492Z,21.82
2016-06-12T08:37:59.557Z,21.78
2016-06-12T08:38:59.732Z,21.83
2016-06-12T08:39:59.079Z,21.93
2016-06-12T08:40:59.285Z,21.89
2016-06-12T08:41:59.523Z,21.86
2016-06-12T08:42:58.198Z,21.9
2016-06-12T08:43:59.294Z,21.83
2016-06-12T08:44:59.220Z,21.96
2016-06-12T08:45:59.034Z,21.86
2016-06-12T08:46:59.959Z,21.99
2016-06-12T08:47:59.354Z,22.05
2016-06-12T08:48:59.435Z,21.94
2016-06-12T08:49:58.985Z,21.94
2016-06-12T08:50:59.613Z,21.94
2016-06-12T08:51:59.772Z,21.99
2016-06-12T08:52:59.431Z,21.99
2016-06-12T08:53:59.998Z,22.02
2016-06-12T08:54:59.219Z,22.04
2016-06-12T08:55:59.096Z,22.11
2016-06-12T08:56:59.585Z,22.07
2016-06-12T08:57:59.213Z,22.08
2016-06-12T08:58:59.747Z,22.02
2016-06-12T08:59:59.562Z,22.07
2016-06-12T09:00:59.566Z,22.12
2016-06-12T09:01:59.365Z,22.14
2016-06-12T09:02:59.650Z,22.14
2016-06-12T09:03:59.684Z,22.14
2016-06-12T09:04:59.156Z,22.14
2016-06-12T09:05:59.706Z,22.15
2016-06-12T09:06:59.209Z,22.2
2016-06-12T09:07:59.509Z,22.27
2016-06-12T09:08:59.730Z,22.15
2016-06-12T09:09:59.422Z,22.27
2016-06-12T09:10:58.800Z,22.22
2016-06-12T09:11:59.114Z,22.27
2016-06-12T09:12:59.258Z,22.24
2016-06-12T09:13:59.544Z,22.23
2016-06-12T09:14:58.884Z,22.22
2016-06-12T09:15:59.881Z,22.3
2016-06-12T09:16:59.034Z,22.26
2016-06-12T09:17:59.860Z,22.3
2016-06-12T09:19:00.153Z,22.26
2016-06-12T09:19:59.624Z,22.41
2016-06-12T09:20:59.781Z,22.27
2016-06-12T09:21:59.987Z,22.38
2016-06-12T09:22:59.880Z,22.27
2016-06-12T09:24:00.069Z,22.39
2016-06-12T09:25:00.342Z,22.45
2016-06-12T09:25:59.944Z,22.38
2016-06-12T09:26:58.718Z,22.29
2016-06-12T09:27:58.633Z,22.45
2016-06-12T09:28:59.657Z,22.3
2016-06-12T09:29:59.505Z,22.39
2016-06-12T09:30:59.228Z,22.41
2016-06-12T09:31:59.797Z,22.45
2016-06-12T09:33:00.238Z,22.39
2016-06-12T09:33:59.149Z,22.54
2016-06-12T09:35:00.669Z,22.51
2016-06-12T09:35:59.657Z,22.38
2016-06-12T09:36:59.568Z,22.46
2016-06-12T09:38:00.711Z,22.54
2016-06-12T09:38:59.904Z,22.49
2016-06-12T09:39:59.594Z,22.55
2016-06-12T09:41:00.066Z,22.55
2016-06-12T09:41:59.789Z,22.55
2016-06-12T09:42:59.620Z,22.6
2016-06-12T09:43:59.827Z,22.64
2016-06-12T09:45:00.346Z,22.54
2016-06-12T09:46:00.271Z,22.57
2016-06-12T09:47:00.227Z,22.66
2016-06-12T09:47:59.964Z,22.61
2016-06-12T09:48:59.655Z,22.6
2016-06-12T09:50:00.376Z,22.66
2016-06-12T09:51:00.365Z,22.63
2016-06-12T09:51:59.851Z,22.69
2016-06-12T09:52:59.901Z,22.64
2016-06-12T09:54:00.124Z,22.73
2016-06-12T09:55:00.345Z,22.67
2016-06-12T09:56:00.019Z,22.7
2016-06-12T09:56:59.616Z,22.7
2016-06-12T09:58:00.026Z,22.7
2016-06-12T09:58:59.920Z,22.7
2016-06-12T09:59:59.892Z,22.69
2016-06-12T10:01:00.348Z,22.73
2016-06-12T10:01:59.882Z,22.67
2016-06-12T10:02:59.838Z,22.75
2016-06-12T10:03:59.763Z,22.71
2016-06-12T10:04:59.704Z,22.64
2016-06-12T10:05:59.708Z,22.71
2016-06-12T10:06:59.772Z,22.75
2016-06-12T10:08:00.134Z,22.63
2016-06-12T10:08:59.982Z,22.67
2016-06-12T10:10:00.235Z,22.85
2016-06-12T10:10:59.657Z,22.86
2016-06-12T10:11:59.143Z,22.73
2016-06-12T10:12:59.819Z,22.78
2016-06-12T10:14:00.060Z,22.82
2016-06-12T10:14:59.950Z,22.82
2016-06-12T10:16:00.066Z,22.81
2016-06-12T10:17:00.272Z,22.84
2016-06-12T10:17:59.194Z,22.86
2016-06-12T10:18:59.994Z,22.81
2016-06-12T10:21:55.612Z,22.82
2016-06-12T10:22:24.741Z,22.88
2016-06-12T10:23:25.603Z,22.78
2016-06-12T10:26:21.253Z,22.86
2016-06-12T10:26:49.831Z,22.84
2016-06-12T10:27:50.647Z,22.84
2016-06-12T10:28:50.728Z,22.82
2016-06-12T10:29:50.340Z,22.96
2016-06-12T10:30:54.171Z,22.82
2016-06-12T10:31:50.238Z,22.81
2016-06-12T10:32:50.600Z,22.89
2016-06-12T10:33:50.525Z,22.96
2016-06-12T10:34:50.699Z,22.86
2016-06-12T10:35:50.640Z,22.99
2016-06-12T10:36:51.112Z,23
2016-06-12T10:37:50.037Z,22.88
2016-06-12T10:38:50.321Z,22.97
2016-06-12T10:39:50.871Z,22.94
2016-06-12T10:40:50.765Z,22.96
2016-06-12T10:41:50.486Z,22.82
2016-06-12T10:42:50.599Z,22.91
2016-06-12T10:43:50.414Z,22.92
2016-06-12T10:44:50.652Z,22.88
2016-06-12T10:45:50.873Z,23.03
2016-06-12T10:46:50.501Z,22.91
2016-06-12T10:47:50.411Z,22.89
2016-06-12T10:48:51.196Z,23
2016-06-12T10:49:50.511Z,23
2016-06-12T10:50:50.295Z,22.94
2016-06-12T10:51:50.424Z,22.97
2016-06-12T10:52:52.286Z,22.99
2016-06-12T10:53:50.663Z,23
2016-06-12T10:54:50.667Z,23
2016-06-12T10:55:50.873Z,23.07
2016-06-12T10:56:50.689Z,22.97
2016-06-12T10:57:50.582Z,22.94
2016-06-12T10:58:50.539Z,23
2016-06-12T10:59:50.510Z,23.04
2016-06-12T11:02:46.630Z,23.07
2016-06-12T11:03:14.758Z,23.04
2016-06-12T11:04:14.931Z,23.14
2016-06-12T11:05:15.373Z,23.06
2016-06-12T11:06:15.735Z,23.06
2016-06-12T11:07:15.347Z,23.09
2016-06-12T11:08:15.882Z,23.04
2016-06-12T11:09:15.182Z,23.07
2016-06-12T11:10:15.388Z,23.01
2016-06-12T11:11:15.282Z,23.1
2016-06-12T11:12:15.160Z,23.14
2016-06-12T11:13:15.366Z,23.09
2016-06-12T11:14:14.776Z,23.09
2016-06-12T11:15:15.404Z,23.09
2016-06-12T11:16:15.298Z,23.14
2016-06-12T11:17:15.660Z,23.18
2016-06-12T11:18:15.334Z,23.15
2016-06-12T11:19:15.353Z,23.07
2016-06-12T11:20:15.325Z,23.06
2016-06-12T11:21:15.578Z,23.1
2016-06-12T11:22:14.816Z,23.24
2016-06-12T11:23:15.365Z,23.15
2016-06-12T11:24:15.868Z,23.19
2016-06-12T11:25:15.684Z,23.22
2016-06-12T11:26:15.406Z,23.16
2016-06-12T11:27:15.909Z,23.19
2016-06-12T11:28:14.396Z,23.19
2016-06-12T11:29:15.213Z,23.12
2016-06-12T11:30:15.355Z,23.22
2016-06-12T11:31:14.827Z,23.25
2016-06-12T11:32:15.128Z,23.18
2016-06-12T11:33:15.678Z,23.26
2016-06-12T11:34:15.696Z,23.26
2016-06-12T11:35:15.137Z,23.28
2016-06-12T11:36:15.562Z,23.32
2016-06-12T11:37:15.988Z,23.25
2016-06-12T11:38:15.741Z,23.19
2016-06-12T11:39:15.915Z,23.29
2016-06-12T11:40:15.637Z,23.28
2016-06-12T11:41:15.530Z,23.28
2016-06-12T11:42:15.111Z,23.29
2016-06-12T11:43:15.317Z,23.38
2016-06-12T11:44:15.258Z,23.35
2016-06-12T11:45:15.355Z,23.32
2016-06-12T11:46:15.311Z,23.35
2016-06-12T11:47:15.861Z,23.37
2016-06-12T11:48:15.442Z,23.29
2016-06-12T11:49:15.586Z,23.29
2016-06-12T11:50:15.480Z,23.34
2016-06-12T11:51:15.014Z,23.37
2016-06-12T11:52:15.611Z,23.38
2016-06-12T11:53:16.240Z,23.35
2016-06-12T11:54:15.460Z,23.42
2016-06-12T11:55:14.933Z,23.44
2016-06-12T11:56:15.436Z,23.29
2016-06-12T11:57:15.751Z,23.4
2016-06-12T11:58:14.207Z,23.35
2016-06-12T11:59:15.648Z,23.48
2016-06-12T12:00:15.870Z,23.44
2016-06-12T12:01:15.732Z,23.38
2016-06-12T12:02:15.157Z,23.34
2016-06-12T12:03:15.270Z,23.38
2016-06-12T12:04:14.960Z,23.44
2016-06-12T12:05:15.573Z,23.44
2016-06-12T12:06:15.966Z,23.47
2016-06-12T12:07:15.829Z,23.48
2016-06-12T12:08:15.269Z,23.45
2016-06-12T12:09:15.194Z,23.53
2016-06-12T12:10:15.135Z,23.47
2016-06-12T12:11:15.434Z,23.48
2016-06-12T12:12:15.375Z,23.45
2016-06-12T12:13:15.488Z,23.44
2016-06-12T12:14:15.476Z,23.48
2016-06-12T12:15:15.682Z,23.52
2016-06-12T12:16:15.014Z,23.4
2016-06-12T12:17:15.547Z,23.59
2016-06-12T12:18:15.722Z,23.53
2016-06-12T12:19:15.101Z,23.52
2016-06-12T12:20:15.510Z,23.47
2016-06-12T12:21:15.748Z,23.5
2016-06-12T12:22:15.376Z,23.55
2016-06-12T12:23:15.550Z,23.56
2016-06-12T12:24:16.052Z,23.55
2016-06-12T12:25:15.369Z,23.44
2016-06-12T12:26:15.559Z,23.59
2016-06-12T12:27:15.733Z,23.53
2016-06-12T12:28:14.456Z,23.55
2016-06-12T12:29:14.787Z,23.66
2016-06-12T12:30:15.915Z,23.63
2016-06-12T12:31:15.435Z,23.59
2016-06-12T12:32:15.937Z,23.6
2016-06-12T12:33:15.847Z,23.55
2016-06-12T12:34:15.413Z,23.66
2016-06-12T12:35:14.649Z,23.62
2016-06-12T12:36:14.839Z,23.6
2016-06-12T12:37:15.358Z,23.59
2016-06-12T12:38:14.299Z,23.64
2016-06-12T12:39:15.396Z,23.66
2016-06-12T12:40:16.071Z,23.62
2016-06-12T12:41:15.073Z,23.67
2016-06-12T12:42:15.827Z,23.66
2016-06-12T12:43:15.815Z,23.64
2016-06-12T12:44:15.615Z,23.62
2016-06-12T12:45:15.617Z,23.62
2016-06-12T12:46:15.527Z,23.67
2016-06-12T12:47:15.233Z,23.64
2016-06-12T12:48:15.939Z,23.71
2016-06-12T12:49:15.255Z,23.71
2016-06-12T12:50:15.540Z,23.63
2016-06-12T12:51:15.668Z,23.71
2016-06-12T12:52:15.249Z,23.71
2016-06-12T12:53:15.252Z,23.75
2016-06-12T12:54:15.411Z,23.66
2016-06-12T12:55:15.570Z,23.77
2016-06-12T12:56:15.823Z,23.77
2016-06-12T12:57:15.545Z,23.77
2016-06-12T12:58:15.407Z,23.67
2016-06-12T12:59:15.661Z,23.72
2016-06-12T13:00:16.101Z,23.79
2016-06-12T13:01:15.636Z,23.62
2016-06-12T13:02:15.577Z,23.71
2016-06-12T13:03:15.376Z,23.67
2016-06-12T13:04:15.675Z,23.77
2016-06-12T13:05:15.273Z,23.75